sensor_id;sensor_type;location;lat;lon;timestamp;P1;durP1;ratioP1;P2;durP2;ratioP2
42186;SDS011;27858;51.414;0.018;2022-12-26T00:01:09;6.50;;;1.75;;
42186;SDS011;27858;51.414;0.018;2022-12-26T00:03:37;5.85;;;1.52;;
42186;SDS011;27858;51.414;0.018;2022-12-26T00:06:09;19.08;;;2.47;;
42186;SDS011;27858;51.414;0.018;2022-12-26T00:08:37;14.13;;;2.03;;
42186;SDS011;27858;51.414;0.018;2022-12-26T00:11:04;5.90;;;1.25;;
42186;SDS011;27858;51.414;0.018;2022-12-26T00:13:31;9.93;;;1.88;;
42186;SDS011;27858;51.414;0.018;2022-12-26T00:16:07;6.03;;;1.27;;
42186;SDS011;27858;51.414;0.018;2022-12-26T00:18:39;6.35;;;1.15;;
42186;SDS011;27858;51.414;0.018;2022-12-26T00:21:06;14.55;;;2.47;;
42186;SDS011;27858;51.414;0.018;2022-12-26T00:23:35;11.68;;;2.63;;
42186;SDS011;27858;51.414;0.018;2022-12-26T00:26:03;9.23;;;2.92;;
42186;SDS011;27858;51.414;0.018;2022-12-26T00:28:37;11.15;;;1.63;;
42186;SDS011;27858;51.414;0.018;2022-12-26T00:31:06;8.85;;;1.77;;
42186;SDS011;27858;51.414;0.018;2022-12-26T00:33:34;5.28;;;1.50;;
42186;SDS011;27858;51.414;0.018;2022-12-26T00:36:35;9.40;;;2.17;;
42186;SDS011;27858;51.414;0.018;2022-12-26T00:38:57;11.27;;;1.98;;
42186;SDS011;27858;51.414;0.018;2022-12-26T00:41:24;10.02;;;1.65;;
42186;SDS011;27858;51.414;0.018;2022-12-26T00:43:52;11.80;;;2.05;;
42186;SDS011;27858;51.414;0.018;2022-12-26T00:46:18;11.63;;;2.92;;
42186;SDS011;27858;51.414;0.018;2022-12-26T00:48:45;12.45;;;3.28;;
42186;SDS011;27858;51.414;0.018;2022-12-26T00:51:13;8.70;;;1.58;;
42186;SDS011;27858;51.414;0.018;2022-12-26T00:53:40;6.72;;;2.08;;
42186;SDS011;27858;51.414;0.018;2022-12-26T00:56:07;8.95;;;2.47;;
42186;SDS011;27858;51.414;0.018;2022-12-26T00:58:34;13.18;;;1.67;;
42186;SDS011;27858;51.414;0.018;2022-12-26T01:01:09;10.23;;;2.03;;
42186;SDS011;27858;51.414;0.018;2022-12-26T01:03:39;8.35;;;2.17;;
42186;SDS011;27858;51.414;0.018;2022-12-26T01:06:07;8.45;;;2.20;;
42186;SDS011;27858;51.414;0.018;2022-12-26T01:08:34;8.38;;;2.22;;
42186;SDS011;27858;51.414;0.018;2022-12-26T01:11:01;7.63;;;1.30;;
42186;SDS011;27858;51.414;0.018;2022-12-26T01:13:30;10.95;;;2.70;;
42186;SDS011;27858;51.414;0.018;2022-12-26T01:15:57;10.02;;;2.55;;
42186;SDS011;27858;51.414;0.018;2022-12-26T01:18:24;7.50;;;1.85;;
42186;SDS011;27858;51.414;0.018;2022-12-26T01:20:50;8.13;;;1.73;;
42186;SDS011;27858;51.414;0.018;2022-12-26T01:23:22;8.05;;;2.13;;
42186;SDS011;27858;51.414;0.018;2022-12-26T01:25:49;13.63;;;2.30;;
42186;SDS011;27858;51.414;0.018;2022-12-26T01:28:36;8.07;;;2.53;;
42186;SDS011;27858;51.414;0.018;2022-12-26T01:31:03;7.43;;;1.42;;
42186;SDS011;27858;51.414;0.018;2022-12-26T01:33:30;11.27;;;1.90;;
42186;SDS011;27858;51.414;0.018;2022-12-26T01:35:58;13.20;;;2.30;;
42186;SDS011;27858;51.414;0.018;2022-12-26T01:38:25;6.82;;;1.45;;
42186;SDS011;27858;51.414;0.018;2022-12-26T01:40:52;12.32;;;1.75;;
42186;SDS011;27858;51.414;0.018;2022-12-26T01:46:52;11.32;;;2.22;;
42186;SDS011;27858;51.414;0.018;2022-12-26T01:49:20;9.25;;;1.90;;
42186;SDS011;27858;51.414;0.018;2022-12-26T01:51:52;4.65;;;1.63;;
42186;SDS011;27858;51.414;0.018;2022-12-26T01:54:23;6.60;;;1.48;;
42186;SDS011;27858;51.414;0.018;2022-12-26T01:57:08;10.57;;;1.85;;
42186;SDS011;27858;51.414;0.018;2022-12-26T01:59:39;9.25;;;1.60;;
42186;SDS011;27858;51.414;0.018;2022-12-26T02:02:07;7.68;;;1.48;;
42186;SDS011;27858;51.414;0.018;2022-12-26T02:04:35;9.88;;;2.38;;
42186;SDS011;27858;51.414;0.018;2022-12-26T02:07:24;13.32;;;1.45;;
42186;SDS011;27858;51.414;0.018;2022-12-26T02:09:51;7.90;;;1.90;;
42186;SDS011;27858;51.414;0.018;2022-12-26T02:12:27;18.35;;;3.30;;
42186;SDS011;27858;51.414;0.018;2022-12-26T02:15:07;6.88;;;2.03;;
42186;SDS011;27858;51.414;0.018;2022-12-26T02:17:41;12.10;;;2.42;;
42186;SDS011;27858;51.414;0.018;2022-12-26T02:28:35;10.43;;;1.83;;
42186;SDS011;27858;51.414;0.018;2022-12-26T02:33:57;10.65;;;2.42;;
42186;SDS011;27858;51.414;0.018;2022-12-26T02:44:57;10.00;;;1.53;;
42186;SDS011;27858;51.414;0.018;2022-12-26T02:47:54;9.85;;;2.05;;
42186;SDS011;27858;51.414;0.018;2022-12-26T02:50:45;6.25;;;2.25;;
42186;SDS011;27858;51.414;0.018;2022-12-26T02:53:57;22.10;;;3.05;;
42186;SDS011;27858;51.414;0.018;2022-12-26T02:56:47;10.50;;;2.15;;
42186;SDS011;27858;51.414;0.018;2022-12-26T02:59:51;5.45;;;1.65;;
42186;SDS011;27858;51.414;0.018;2022-12-26T03:02:51;8.73;;;2.15;;
42186;SDS011;27858;51.414;0.018;2022-12-26T03:05:41;8.38;;;2.10;;
42186;SDS011;27858;51.414;0.018;2022-12-26T03:08:41;11.10;;;2.67;;
42186;SDS011;27858;51.414;0.018;2022-12-26T03:11:29;8.77;;;1.90;;
42186;SDS011;27858;51.414;0.018;2022-12-26T03:14:22;4.20;;;1.95;;
42186;SDS011;27858;51.414;0.018;2022-12-26T03:17:02;5.55;;;1.27;;
42186;SDS011;27858;51.414;0.018;2022-12-26T03:19:55;9.02;;;2.67;;
42186;SDS011;27858;51.414;0.018;2022-12-26T03:22:40;5.82;;;2.95;;
42186;SDS011;27858;51.414;0.018;2022-12-26T03:25:26;8.52;;;1.70;;
42186;SDS011;27858;51.414;0.018;2022-12-26T03:28:35;7.15;;;1.45;;
42186;SDS011;27858;51.414;0.018;2022-12-26T03:31:06;4.50;;;1.65;;
42186;SDS011;27858;51.414;0.018;2022-12-26T03:33:42;9.93;;;2.05;;
42186;SDS011;27858;51.414;0.018;2022-12-26T03:45:52;4.68;;;1.50;;
42186;SDS011;27858;51.414;0.018;2022-12-26T03:51:52;6.35;;;1.35;;
42186;SDS011;27858;51.414;0.018;2022-12-26T03:54:48;9.50;;;0.80;;
42186;SDS011;27858;51.414;0.018;2022-12-26T03:57:50;9.00;;;2.28;;
42186;SDS011;27858;51.414;0.018;2022-12-26T04:00:43;9.98;;;1.33;;
42186;SDS011;27858;51.414;0.018;2022-12-26T04:03:31;11.38;;;1.75;;
42186;SDS011;27858;51.414;0.018;2022-12-26T04:06:19;5.55;;;1.52;;
42186;SDS011;27858;51.414;0.018;2022-12-26T04:09:21;5.32;;;1.50;;
42186;SDS011;27858;51.414;0.018;2022-12-26T04:12:12;1.73;;;0.50;;
42186;SDS011;27858;51.414;0.018;2022-12-26T04:15:03;4.28;;;1.02;;
42186;SDS011;27858;51.414;0.018;2022-12-26T04:17:57;8.25;;;1.80;;
42186;SDS011;27858;51.414;0.018;2022-12-26T04:21:03;3.70;;;1.00;;
42186;SDS011;27858;51.414;0.018;2022-12-26T04:24:00;8.48;;;1.13;;
42186;SDS011;27858;51.414;0.018;2022-12-26T04:26:51;4.20;;;0.60;;
42186;SDS011;27858;51.414;0.018;2022-12-26T04:29:39;1.73;;;0.70;;
42186;SDS011;27858;51.414;0.018;2022-12-26T04:38:34;0.50;;;0.40;;
42186;SDS011;27858;51.414;0.018;2022-12-26T04:41:23;4.28;;;0.95;;
42186;SDS011;27858;51.414;0.018;2022-12-26T04:44:11;4.03;;;0.90;;
42186;SDS011;27858;51.414;0.018;2022-12-26T04:46:40;0.93;;;0.50;;
42186;SDS011;27858;51.414;0.018;2022-12-26T04:49:12;4.85;;;0.40;;
42186;SDS011;27858;51.414;0.018;2022-12-26T04:51:59;2.25;;;0.50;;
42186;SDS011;27858;51.414;0.018;2022-12-26T04:54:28;3.17;;;0.60;;
42186;SDS011;27858;51.414;0.018;2022-12-26T04:56:55;0.95;;;0.40;;
42186;SDS011;27858;51.414;0.018;2022-12-26T04:59:22;4.03;;;0.43;;
42186;SDS011;27858;51.414;0.018;2022-12-26T05:01:49;1.27;;;0.55;;
42186;SDS011;27858;51.414;0.018;2022-12-26T05:04:35;2.45;;;1.00;;
42186;SDS011;27858;51.414;0.018;2022-12-26T05:07:21;1.27;;;0.60;;
42186;SDS011;27858;51.414;0.018;2022-12-26T05:10:25;15.90;;;1.67;;
42186;SDS011;27858;51.414;0.018;2022-12-26T05:12:53;3.60;;;0.52;;
42186;SDS011;27858;51.414;0.018;2022-12-26T05:15:20;6.45;;;0.50;;
42186;SDS011;27858;51.414;0.018;2022-12-26T05:17:47;1.70;;;0.75;;
42186;SDS011;27858;51.414;0.018;2022-12-26T05:20:33;0.98;;;0.55;;
42186;SDS011;27858;51.414;0.018;2022-12-26T05:23:19;1.77;;;0.60;;
42186;SDS011;27858;51.414;0.018;2022-12-26T05:26:10;0.85;;;0.30;;
42186;SDS011;27858;51.414;0.018;2022-12-26T05:29:02;3.78;;;0.52;;
42186;SDS011;27858;51.414;0.018;2022-12-26T05:31:29;4.13;;;1.40;;
42186;SDS011;27858;51.414;0.018;2022-12-26T05:34:02;6.38;;;1.08;;
42186;SDS011;27858;51.414;0.018;2022-12-26T05:36:38;2.55;;;0.68;;
42186;SDS011;27858;51.414;0.018;2022-12-26T05:39:08;2.75;;;0.82;;
42186;SDS011;27858;51.414;0.018;2022-12-26T05:41:35;1.38;;;0.60;;
42186;SDS011;27858;51.414;0.018;2022-12-26T05:44:03;1.45;;;0.40;;
42186;SDS011;27858;51.414;0.018;2022-12-26T05:46:31;0.75;;;0.30;;
42186;SDS011;27858;51.414;0.018;2022-12-26T05:48:58;0.10;;;0.10;;
42186;SDS011;27858;51.414;0.018;2022-12-26T05:51:25;0.90;;;0.30;;
42186;SDS011;27858;51.414;0.018;2022-12-26T05:53:52;0.43;;;0.10;;
42186;SDS011;27858;51.414;0.018;2022-12-26T05:56:19;0.10;;;0.10;;
42186;SDS011;27858;51.414;0.018;2022-12-26T05:58:46;0.68;;;0.17;;
42186;SDS011;27858;51.414;0.018;2022-12-26T06:01:19;1.45;;;0.40;;
42186;SDS011;27858;51.414;0.018;2022-12-26T06:03:47;0.80;;;0.40;;
42186;SDS011;27858;51.414;0.018;2022-12-26T06:06:16;0.13;;;0.10;;
42186;SDS011;27858;51.414;0.018;2022-12-26T06:08:46;0.47;;;0.10;;
42186;SDS011;27858;51.414;0.018;2022-12-26T06:11:14;2.15;;;0.20;;
42186;SDS011;27858;51.414;0.018;2022-12-26T06:13:41;0.00;;;0.00;;
42186;SDS011;27858;51.414;0.018;2022-12-26T06:16:12;1.00;;;0.60;;
42186;SDS011;27858;51.414;0.018;2022-12-26T06:18:40;4.93;;;1.10;;
42186;SDS011;27858;51.414;0.018;2022-12-26T06:21:08;2.92;;;0.30;;
42186;SDS011;27858;51.414;0.018;2022-12-26T06:23:37;1.23;;;0.50;;
42186;SDS011;27858;51.414;0.018;2022-12-26T06:26:04;4.22;;;0.80;;
42186;SDS011;27858;51.414;0.018;2022-12-26T06:28:33;0.35;;;0.10;;
42186;SDS011;27858;51.414;0.018;2022-12-26T06:31:03;1.90;;;0.20;;
42186;SDS011;27858;51.414;0.018;2022-12-26T06:33:31;2.55;;;0.63;;
42186;SDS011;27858;51.414;0.018;2022-12-26T06:36:05;3.72;;;0.30;;
42186;SDS011;27858;51.414;0.018;2022-12-26T06:38:36;3.70;;;1.20;;
42186;SDS011;27858;51.414;0.018;2022-12-26T06:41:04;3.72;;;0.90;;
42186;SDS011;27858;51.414;0.018;2022-12-26T06:43:31;0.70;;;0.20;;
42186;SDS011;27858;51.414;0.018;2022-12-26T06:45:59;2.83;;;0.82;;
42186;SDS011;27858;51.414;0.018;2022-12-26T06:48:27;0.57;;;0.40;;
42186;SDS011;27858;51.414;0.018;2022-12-26T06:50:54;5.05;;;1.23;;
42186;SDS011;27858;51.414;0.018;2022-12-26T06:53:21;3.05;;;0.90;;
42186;SDS011;27858;51.414;0.018;2022-12-26T06:55:49;7.13;;;0.32;;
42186;SDS011;27858;51.414;0.018;2022-12-26T06:58:17;0.82;;;0.30;;
42186;SDS011;27858;51.414;0.018;2022-12-26T07:00:44;3.83;;;0.50;;
42186;SDS011;27858;51.414;0.018;2022-12-26T07:03:10;0.52;;;0.20;;
42186;SDS011;27858;51.414;0.018;2022-12-26T07:05:37;0.43;;;0.30;;
42186;SDS011;27858;51.414;0.018;2022-12-26T07:08:04;0.50;;;0.20;;
42186;SDS011;27858;51.414;0.018;2022-12-26T07:10:35;0.82;;;0.52;;
42186;SDS011;27858;51.414;0.018;2022-12-26T07:13:04;1.00;;;0.20;;
42186;SDS011;27858;51.414;0.018;2022-12-26T07:15:31;1.77;;;0.30;;
42186;SDS011;27858;51.414;0.018;2022-12-26T07:17:58;3.30;;;0.30;;
42186;SDS011;27858;51.414;0.018;2022-12-26T07:20:24;1.10;;;0.20;;
42186;SDS011;27858;51.414;0.018;2022-12-26T07:22:52;1.50;;;0.52;;
42186;SDS011;27858;51.414;0.018;2022-12-26T07:25:19;0.93;;;0.22;;
42186;SDS011;27858;51.414;0.018;2022-12-26T07:27:46;3.50;;;0.50;;
42186;SDS011;27858;51.414;0.018;2022-12-26T07:30:13;1.35;;;0.57;;
42186;SDS011;27858;51.414;0.018;2022-12-26T07:32:39;0.98;;;0.30;;
42186;SDS011;27858;51.414;0.018;2022-12-26T07:35:06;2.80;;;0.80;;
42186;SDS011;27858;51.414;0.018;2022-12-26T07:37:33;5.07;;;0.60;;
42186;SDS011;27858;51.414;0.018;2022-12-26T07:40:00;2.85;;;0.30;;
42186;SDS011;27858;51.414;0.018;2022-12-26T07:42:27;6.28;;;1.17;;
42186;SDS011;27858;51.414;0.018;2022-12-26T07:44:53;3.00;;;0.68;;
42186;SDS011;27858;51.414;0.018;2022-12-26T07:47:20;1.30;;;0.50;;
42186;SDS011;27858;51.414;0.018;2022-12-26T07:49:47;2.03;;;0.55;;
42186;SDS011;27858;51.414;0.018;2022-12-26T07:52:13;2.13;;;0.63;;
42186;SDS011;27858;51.414;0.018;2022-12-26T07:54:40;4.43;;;0.50;;
42186;SDS011;27858;51.414;0.018;2022-12-26T07:57:07;6.53;;;0.45;;
42186;SDS011;27858;51.414;0.018;2022-12-26T07:59:53;3.67;;;0.40;;
42186;SDS011;27858;51.414;0.018;2022-12-26T08:02:21;4.90;;;1.15;;
42186;SDS011;27858;51.414;0.018;2022-12-26T08:04:48;1.98;;;0.70;;
42186;SDS011;27858;51.414;0.018;2022-12-26T08:07:15;1.50;;;0.60;;
42186;SDS011;27858;51.414;0.018;2022-12-26T08:09:41;1.80;;;0.47;;
42186;SDS011;27858;51.414;0.018;2022-12-26T08:12:10;1.85;;;0.82;;
42186;SDS011;27858;51.414;0.018;2022-12-26T08:14:38;2.55;;;0.50;;
42186;SDS011;27858;51.414;0.018;2022-12-26T08:17:05;7.03;;;1.00;;
42186;SDS011;27858;51.414;0.018;2022-12-26T08:19:32;5.30;;;1.60;;
42186;SDS011;27858;51.414;0.018;2022-12-26T08:21:59;1.13;;;0.90;;
42186;SDS011;27858;51.414;0.018;2022-12-26T08:24:26;1.65;;;0.50;;
42186;SDS011;27858;51.414;0.018;2022-12-26T08:26:53;3.63;;;0.80;;
42186;SDS011;27858;51.414;0.018;2022-12-26T08:29:19;1.75;;;0.73;;
42186;SDS011;27858;51.414;0.018;2022-12-26T08:31:46;3.92;;;1.02;;
42186;SDS011;27858;51.414;0.018;2022-12-26T08:34:13;2.28;;;0.35;;
42186;SDS011;27858;51.414;0.018;2022-12-26T08:36:39;13.85;;;1.50;;
42186;SDS011;27858;51.414;0.018;2022-12-26T08:39:06;2.55;;;0.80;;
42186;SDS011;27858;51.414;0.018;2022-12-26T08:41:33;3.13;;;1.25;;
42186;SDS011;27858;51.414;0.018;2022-12-26T08:44:00;3.40;;;0.73;;
42186;SDS011;27858;51.414;0.018;2022-12-26T08:46:47;3.45;;;0.70;;
42186;SDS011;27858;51.414;0.018;2022-12-26T08:49:13;3.28;;;0.57;;
42186;SDS011;27858;51.414;0.018;2022-12-26T08:51:40;5.60;;;0.77;;
42186;SDS011;27858;51.414;0.018;2022-12-26T08:54:07;4.88;;;0.40;;
42186;SDS011;27858;51.414;0.018;2022-12-26T08:56:33;2.47;;;1.10;;
42186;SDS011;27858;51.414;0.018;2022-12-26T08:59:00;12.13;;;3.10;;
42186;SDS011;27858;51.414;0.018;2022-12-26T09:01:28;10.02;;;2.10;;
42186;SDS011;27858;51.414;0.018;2022-12-26T09:03:57;6.47;;;1.77;;
42186;SDS011;27858;51.414;0.018;2022-12-26T09:06:26;9.30;;;3.15;;
42186;SDS011;27858;51.414;0.018;2022-12-26T09:08:53;13.68;;;3.65;;
42186;SDS011;27858;51.414;0.018;2022-12-26T09:11:21;12.80;;;3.90;;
42186;SDS011;27858;51.414;0.018;2022-12-26T09:13:54;8.05;;;2.85;;
42186;SDS011;27858;51.414;0.018;2022-12-26T09:16:24;9.50;;;2.75;;
42186;SDS011;27858;51.414;0.018;2022-12-26T09:18:59;18.88;;;3.90;;
42186;SDS011;27858;51.414;0.018;2022-12-26T09:21:27;5.30;;;1.15;;
42186;SDS011;27858;51.414;0.018;2022-12-26T09:23:55;7.25;;;3.08;;
42186;SDS011;27858;51.414;0.018;2022-12-26T09:26:23;10.20;;;2.95;;
42186;SDS011;27858;51.414;0.018;2022-12-26T09:28:50;5.82;;;2.42;;
42186;SDS011;27858;51.414;0.018;2022-12-26T09:31:18;5.15;;;1.80;;
42186;SDS011;27858;51.414;0.018;2022-12-26T09:33:47;6.30;;;1.50;;
42186;SDS011;27858;51.414;0.018;2022-12-26T09:36:15;3.30;;;0.98;;
42186;SDS011;27858;51.414;0.018;2022-12-26T09:38:44;2.92;;;0.70;;
42186;SDS011;27858;51.414;0.018;2022-12-26T09:49:19;2.17;;;0.60;;
42186;SDS011;27858;51.414;0.018;2022-12-26T09:51:53;4.78;;;0.55;;
42186;SDS011;27858;51.414;0.018;2022-12-26T09:54:36;6.13;;;0.57;;
42186;SDS011;27858;51.414;0.018;2022-12-26T09:57:39;2.55;;;0.40;;
42186;SDS011;27858;51.414;0.018;2022-12-26T10:00:10;1.02;;;0.52;;
42186;SDS011;27858;51.414;0.018;2022-12-26T10:02:46;0.63;;;0.40;;
42186;SDS011;27858;51.414;0.018;2022-12-26T10:05:16;3.15;;;0.82;;
42186;SDS011;27858;51.414;0.018;2022-12-26T10:07:47;2.67;;;0.30;;
42186;SDS011;27858;51.414;0.018;2022-12-26T10:10:34;3.13;;;0.43;;
42186;SDS011;27858;51.414;0.018;2022-12-26T10:16:10;3.10;;;1.00;;
42186;SDS011;27858;51.414;0.018;2022-12-26T10:18:57;1.80;;;0.70;;
42186;SDS011;27858;51.414;0.018;2022-12-26T10:21:41;2.80;;;0.43;;
42186;SDS011;27858;51.414;0.018;2022-12-26T10:24:23;1.17;;;0.85;;
42186;SDS011;27858;51.414;0.018;2022-12-26T10:26:55;1.03;;;0.40;;
42186;SDS011;27858;51.414;0.018;2022-12-26T10:29:27;1.58;;;0.65;;
42186;SDS011;27858;51.414;0.018;2022-12-26T10:32:03;2.58;;;0.70;;
42186;SDS011;27858;51.414;0.018;2022-12-26T10:34:52;1.55;;;0.70;;
42186;SDS011;27858;51.414;0.018;2022-12-26T10:37:30;1.48;;;0.50;;
42186;SDS011;27858;51.414;0.018;2022-12-26T10:40:07;1.40;;;0.40;;
42186;SDS011;27858;51.414;0.018;2022-12-26T10:42:49;3.23;;;0.63;;
42186;SDS011;27858;51.414;0.018;2022-12-26T10:48:29;2.72;;;1.02;;
42186;SDS011;27858;51.414;0.018;2022-12-26T10:50:57;4.63;;;1.70;;
42186;SDS011;27858;51.414;0.018;2022-12-26T10:53:23;3.85;;;1.48;;
42186;SDS011;27858;51.414;0.018;2022-12-26T10:55:50;3.75;;;0.73;;
42186;SDS011;27858;51.414;0.018;2022-12-26T11:00:55;4.90;;;1.02;;
42186;SDS011;27858;51.414;0.018;2022-12-26T11:03:22;1.13;;;0.40;;
42186;SDS011;27858;51.414;0.018;2022-12-26T11:05:52;2.22;;;0.50;;
42186;SDS011;27858;51.414;0.018;2022-12-26T11:08:37;1.88;;;0.40;;
42186;SDS011;27858;51.414;0.018;2022-12-26T11:11:24;3.70;;;0.77;;
42186;SDS011;27858;51.414;0.018;2022-12-26T11:14:27;2.33;;;0.65;;
42186;SDS011;27858;51.414;0.018;2022-12-26T11:17:04;3.75;;;0.82;;
42186;SDS011;27858;51.414;0.018;2022-12-26T11:20:07;7.32;;;1.70;;
42186;SDS011;27858;51.414;0.018;2022-12-26T11:22:36;2.88;;;1.10;;
42186;SDS011;27858;51.414;0.018;2022-12-26T11:27:33;6.20;;;0.93;;
42186;SDS011;27858;51.414;0.018;2022-12-26T11:32:42;3.42;;;0.57;;
42186;SDS011;27858;51.414;0.018;2022-12-26T11:35:22;2.58;;;0.80;;
42186;SDS011;27858;51.414;0.018;2022-12-26T11:37:53;1.15;;;0.70;;
42186;SDS011;27858;51.414;0.018;2022-12-26T11:40:45;6.15;;;1.15;;
42186;SDS011;27858;51.414;0.018;2022-12-26T11:43:32;2.83;;;0.90;;
42186;SDS011;27858;51.414;0.018;2022-12-26T11:45:59;5.13;;;1.30;;
42186;SDS011;27858;51.414;0.018;2022-12-26T11:48:26;3.00;;;1.00;;
42186;SDS011;27858;51.414;0.018;2022-12-26T11:50:53;1.55;;;0.60;;
42186;SDS011;27858;51.414;0.018;2022-12-26T11:53:21;1.67;;;0.85;;
42186;SDS011;27858;51.414;0.018;2022-12-26T11:56:01;3.00;;;0.90;;
42186;SDS011;27858;51.414;0.018;2022-12-26T11:58:30;2.95;;;0.80;;
42186;SDS011;27858;51.414;0.018;2022-12-26T12:03:30;3.67;;;1.17;;
42186;SDS011;27858;51.414;0.018;2022-12-26T12:06:32;3.35;;;0.60;;
42186;SDS011;27858;51.414;0.018;2022-12-26T12:11:54;3.20;;;0.80;;
42186;SDS011;27858;51.414;0.018;2022-12-26T12:39:19;19.90;;;2.50;;
42186;SDS011;27858;51.414;0.018;2022-12-26T12:42:08;3.38;;;0.95;;
42186;SDS011;27858;51.414;0.018;2022-12-26T12:50:42;8.93;;;2.58;;
42186;SDS011;27858;51.414;0.018;2022-12-26T12:53:48;5.85;;;1.55;;
42186;SDS011;27858;51.414;0.018;2022-12-26T12:56:26;2.80;;;1.25;;
42186;SDS011;27858;51.414;0.018;2022-12-26T12:59:23;2.88;;;0.90;;
42186;SDS011;27858;51.414;0.018;2022-12-26T13:02:17;5.25;;;0.98;;
42186;SDS011;27858;51.414;0.018;2022-12-26T13:08:28;5.63;;;0.85;;
42186;SDS011;27858;51.414;0.018;2022-12-26T13:11:48;4.20;;;0.90;;
42186;SDS011;27858;51.414;0.018;2022-12-26T13:14:22;3.30;;;1.05;;
42186;SDS011;27858;51.414;0.018;2022-12-26T13:16:56;6.32;;;1.42;;
42186;SDS011;27858;51.414;0.018;2022-12-26T13:19:47;4.05;;;0.60;;
42186;SDS011;27858;51.414;0.018;2022-12-26T13:22:36;2.85;;;0.93;;
42186;SDS011;27858;51.414;0.018;2022-12-26T13:25:25;8.88;;;1.65;;
42186;SDS011;27858;51.414;0.018;2022-12-26T13:27:59;5.13;;;1.52;;
42186;SDS011;27858;51.414;0.018;2022-12-26T13:30:35;6.28;;;1.13;;
42186;SDS011;27858;51.414;0.018;2022-12-26T13:33:03;3.28;;;0.90;;
42186;SDS011;27858;51.414;0.018;2022-12-26T13:38:19;3.70;;;0.80;;
42186;SDS011;27858;51.414;0.018;2022-12-26T13:40:58;7.60;;;1.90;;
42186;SDS011;27858;51.414;0.018;2022-12-26T13:44:06;1.52;;;0.63;;
42186;SDS011;27858;51.414;0.018;2022-12-26T13:49:33;1.88;;;0.90;;
42186;SDS011;27858;51.414;0.018;2022-12-26T13:59:55;3.15;;;1.02;;
42186;SDS011;27858;51.414;0.018;2022-12-26T14:03:01;2.10;;;0.47;;
42186;SDS011;27858;51.414;0.018;2022-12-26T14:08:59;2.95;;;1.13;;
42186;SDS011;27858;51.414;0.018;2022-12-26T14:19:58;1.90;;;1.08;;
42186;SDS011;27858;51.414;0.018;2022-12-26T14:22:34;4.22;;;0.90;;
42186;SDS011;27858;51.414;0.018;2022-12-26T14:28:07;3.33;;;0.98;;
42186;SDS011;27858;51.414;0.018;2022-12-26T14:33:54;4.10;;;1.10;;
42186;SDS011;27858;51.414;0.018;2022-12-26T14:43:00;5.97;;;1.90;;
42186;SDS011;27858;51.414;0.018;2022-12-26T14:48:53;6.53;;;1.60;;
42186;SDS011;27858;51.414;0.018;2022-12-26T14:51:22;7.10;;;1.33;;
42186;SDS011;27858;51.414;0.018;2022-12-26T14:53:45;3.28;;;1.67;;
42186;SDS011;27858;51.414;0.018;2022-12-26T14:56:33;8.75;;;2.08;;
42186;SDS011;27858;51.414;0.018;2022-12-26T15:02:02;8.90;;;1.70;;
42186;SDS011;27858;51.414;0.018;2022-12-26T15:05:05;3.65;;;1.55;;
42186;SDS011;27858;51.414;0.018;2022-12-26T15:07:59;4.63;;;2.03;;
42186;SDS011;27858;51.414;0.018;2022-12-26T15:16:11;6.53;;;1.83;;
42186;SDS011;27858;51.414;0.018;2022-12-26T15:19:36;5.53;;;1.90;;
42186;SDS011;27858;51.414;0.018;2022-12-26T15:24:39;2.88;;;0.98;;
42186;SDS011;27858;51.414;0.018;2022-12-26T15:33:41;7.05;;;1.80;;
42186;SDS011;27858;51.414;0.018;2022-12-26T15:36:18;3.40;;;1.27;;
42186;SDS011;27858;51.414;0.018;2022-12-26T15:39:23;4.72;;;1.42;;
42186;SDS011;27858;51.414;0.018;2022-12-26T16:01:38;6.05;;;2.10;;
42186;SDS011;27858;51.414;0.018;2022-12-26T16:09:58;4.18;;;1.02;;
42186;SDS011;27858;51.414;0.018;2022-12-26T16:12:26;5.90;;;1.05;;
42186;SDS011;27858;51.414;0.018;2022-12-26T16:17:27;4.60;;;1.55;;
42186;SDS011;27858;51.414;0.018;2022-12-26T16:19:54;4.82;;;0.95;;
42186;SDS011;27858;51.414;0.018;2022-12-26T16:22:24;7.20;;;1.05;;
42186;SDS011;27858;51.414;0.018;2022-12-26T16:25:20;4.63;;;1.42;;
42186;SDS011;27858;51.414;0.018;2022-12-26T16:27:53;2.08;;;1.27;;
42186;SDS011;27858;51.414;0.018;2022-12-26T16:30:24;4.00;;;0.90;;
42186;SDS011;27858;51.414;0.018;2022-12-26T16:32:54;4.93;;;1.17;;
42186;SDS011;27858;51.414;0.018;2022-12-26T16:35:23;4.80;;;1.50;;
42186;SDS011;27858;51.414;0.018;2022-12-26T16:37:51;11.32;;;1.55;;
42186;SDS011;27858;51.414;0.018;2022-12-26T16:42:57;5.95;;;1.85;;
42186;SDS011;27858;51.414;0.018;2022-12-26T16:45:26;4.13;;;1.30;;
42186;SDS011;27858;51.414;0.018;2022-12-26T16:47:56;5.13;;;1.00;;
42186;SDS011;27858;51.414;0.018;2022-12-26T16:50:25;3.58;;;1.33;;
42186;SDS011;27858;51.414;0.018;2022-12-26T16:55:39;3.17;;;1.33;;
42186;SDS011;27858;51.414;0.018;2022-12-26T16:58:13;4.30;;;1.33;;
42186;SDS011;27858;51.414;0.018;2022-12-26T17:01:00;2.13;;;0.90;;
42186;SDS011;27858;51.414;0.018;2022-12-26T17:03:38;1.55;;;1.00;;
42186;SDS011;27858;51.414;0.018;2022-12-26T17:06:15;1.73;;;1.05;;
42186;SDS011;27858;51.414;0.018;2022-12-26T17:08:53;3.55;;;0.95;;
42186;SDS011;27858;51.414;0.018;2022-12-26T17:11:29;3.30;;;1.73;;
42186;SDS011;27858;51.414;0.018;2022-12-26T17:13:59;5.82;;;0.70;;
42186;SDS011;27858;51.414;0.018;2022-12-26T17:16:27;2.72;;;1.00;;
42186;SDS011;27858;51.414;0.018;2022-12-26T17:19:07;4.72;;;0.75;;
42186;SDS011;27858;51.414;0.018;2022-12-26T17:21:36;2.30;;;1.20;;
42186;SDS011;27858;51.414;0.018;2022-12-26T17:26:33;10.23;;;1.48;;
42186;SDS011;27858;51.414;0.018;2022-12-26T17:29:04;5.15;;;2.50;;
42186;SDS011;27858;51.414;0.018;2022-12-26T17:31:38;2.88;;;1.48;;
42186;SDS011;27858;51.414;0.018;2022-12-26T17:34:15;4.25;;;1.45;;
42186;SDS011;27858;51.414;0.018;2022-12-26T17:36:49;2.47;;;1.73;;
42186;SDS011;27858;51.414;0.018;2022-12-26T17:39:36;2.97;;;1.65;;
42186;SDS011;27858;51.414;0.018;2022-12-26T17:42:02;5.82;;;1.30;;
42186;SDS011;27858;51.414;0.018;2022-12-26T17:49:37;3.25;;;1.77;;
42186;SDS011;27858;51.414;0.018;2022-12-26T17:52:03;3.15;;;1.55;;
42186;SDS011;27858;51.414;0.018;2022-12-26T17:54:30;5.55;;;1.38;;
42186;SDS011;27858;51.414;0.018;2022-12-26T17:56:57;4.82;;;1.10;;
42186;SDS011;27858;51.414;0.018;2022-12-26T17:59:25;4.22;;;1.60;;
42186;SDS011;27858;51.414;0.018;2022-12-26T18:01:52;3.65;;;1.55;;
42186;SDS011;27858;51.414;0.018;2022-12-26T18:04:19;4.28;;;1.48;;
42186;SDS011;27858;51.414;0.018;2022-12-26T18:06:46;6.22;;;1.75;;
42186;SDS011;27858;51.414;0.018;2022-12-26T18:09:22;2.28;;;0.98;;
42186;SDS011;27858;51.414;0.018;2022-12-26T18:11:52;2.75;;;1.40;;
42186;SDS011;27858;51.414;0.018;2022-12-26T18:14:20;3.45;;;1.17;;
42186;SDS011;27858;51.414;0.018;2022-12-26T18:16:47;3.95;;;1.17;;
42186;SDS011;27858;51.414;0.018;2022-12-26T18:19:17;5.35;;;1.80;;
42186;SDS011;27858;51.414;0.018;2022-12-26T18:21:45;1.85;;;0.90;;
42186;SDS011;27858;51.414;0.018;2022-12-26T18:24:12;2.78;;;0.98;;
42186;SDS011;27858;51.414;0.018;2022-12-26T18:26:39;4.63;;;1.38;;
42186;SDS011;27858;51.414;0.018;2022-12-26T18:29:07;3.35;;;1.25;;
42186;SDS011;27858;51.414;0.018;2022-12-26T18:31:35;2.15;;;1.38;;
42186;SDS011;27858;51.414;0.018;2022-12-26T18:34:03;3.25;;;1.17;;
42186;SDS011;27858;51.414;0.018;2022-12-26T18:36:31;2.85;;;1.20;;
42186;SDS011;27858;51.414;0.018;2022-12-26T18:38:59;4.07;;;1.13;;
42186;SDS011;27858;51.414;0.018;2022-12-26T18:41:26;2.08;;;1.00;;
42186;SDS011;27858;51.414;0.018;2022-12-26T18:43:53;4.05;;;1.42;;
42186;SDS011;27858;51.414;0.018;2022-12-26T18:46:22;6.90;;;1.17;;
42186;SDS011;27858;51.414;0.018;2022-12-26T18:48:51;3.80;;;1.83;;
42186;SDS011;27858;51.414;0.018;2022-12-26T18:51:19;4.57;;;1.30;;
42186;SDS011;27858;51.414;0.018;2022-12-26T18:53:46;2.55;;;0.95;;